Nearby METAR Reports

 

EGMC - Southend-On-Sea, United Kingdom
Distance from station: NE 10km
Updated: 25/11/2017 08:50
Clear
Clear
 Wind from W
Wind: W 8 mph , 13 km/h
Temperature: 2°C
Wind Chill: -1°C
Dew Point: -1°C
Humidity: 81%
Barometer: 1014 hPa
Summary: Clear
Visibility: greater than 7 miles , 10 km
2017/11/25 08:50 EGMC 250850Z 27007KT CAVOK 02/M01 Q1014
EGLC - London City Airp, United Kingdom
Distance from station: W 37km
Updated: 25/11/2017 08:50
Clear
Clear
 Wind from WSW
Wind: WSW 7 mph , 11 km/h
Temperature: 3°C
Wind Chill: 0°C
Dew Point: 0°C
Humidity: 81%
Barometer: 1015 hPa
Clouds: Clear
Visibility: 6 miles , 10 km
2017/11/25 08:50 EGLC 250850Z AUTO 24006KT 9999 NCD 03/00 Q1015
EGKB - Biggin Hill, United Kingdom
Distance from station: WSW 45km
Updated: 25/11/2017 08:50
Clear
Clear
 Wind from W
Wind: W 8 mph , 13 km/h
Temperature: 1°C
Wind Chill: -3°C
Dew Point: 0°C
Humidity: 93%
Barometer: 1014 hPa
Summary: Clear
Visibility: greater than 7 miles , 10 km
2017/11/25 08:50 EGKB 250850Z 26007KT 210V290 CAVOK 01/00 Q1014
 
EGSS - Stansted Airport, United Kingdom
Distance from station: NNW 48km
Updated: 25/11/2017 08:50
Clear
Clear
 Wind from W
Wind: W 5 mph , 7 km/h
Temperature: -1°C
Wind Chill: -4°C
Dew Point: -2°C
Humidity: 93%
Barometer: 1014 hPa
Clouds: Clear
Visibility: 6 miles , 10 km
2017/11/25 08:50 EGSS 250850Z AUTO 26004KT 9999 NCD M01/M02 Q1014
EGKK - London/Gatwick A, United Kingdom
Distance from station: SW 67km
Updated: 25/11/2017 08:50
Clear
Clear
 Wind from WSW
Wind: WSW 5 mph , 7 km/h
Temperature: 1°C
Wind Chill: -2°C
Dew Point: 0°C
Humidity: 93%
Barometer: 1015 hPa
Summary: Clear
Visibility: greater than 7 miles , 10 km
2017/11/25 08:50 EGKK 250850Z 25004KT 210V300 CAVOK 01/M00 Q1015
EGMD - Lydd Airport, United Kingdom
Distance from station: SSE 67km
Updated: 25/11/2017 08:50
Partly cloudy
Partly cloudy
 Wind from WNW
Wind: WNW 8 mph , 13 km/h
Temperature: 1°C
Wind Chill: -3°C
Dew Point: 0°C
Humidity: 93%
Barometer: 1015 hPa
Clouds: Partly cloudy
Visibility: 6 miles , 10 km
Cloud details: Partly cloudy 1494 m
2017/11/25 08:50 EGMD 250850Z 29007KT 9999 SCT049 01/00 Q1015
 
EGWU - Northolt Raf, United Kingdom
Distance from station: W 69km
Updated: 25/11/2017 08:50
Clear
Clear
 Wind from WNW
Wind: WNW 2 mph , 4 km/h
Temperature: 0°C
Dew Point: 0°C
Humidity: 100%
Barometer: 1015 hPa
Summary: Clear
Visibility: greater than 7 miles , 10 km
2017/11/25 08:50 EGWU 250850Z 29002KT CAVOK 00/M00 Q1015 NOSIG
EGLL - London/Heathrow, United Kingdom
Distance from station: W 72km
Updated: 25/11/2017 08:50
Clear
Clear
 Wind from W
Wind: W 8 mph , 13 km/h
Temperature: 2°C
Wind Chill: -1°C
Dew Point: 1°C
Humidity: 93%
Barometer: 1015 hPa
Clouds: Clear
Visibility: 6 miles , 10 km
2017/11/25 08:50 EGLL 250850Z AUTO 27007KT 9999 NCD 02/01 Q1015 NOSIG
EGUW - Wattisham Raf, United Kingdom
Distance from station: NNE 72km
Updated: 25/11/2017 08:50
Clear
Clear
 Wind from WNW
Wind: WNW 10 mph , 17 km/h
Temperature: 0°C
Wind Chill: -4°C
Dew Point: -1°C
Humidity: 93%
Barometer: 1013 hPa
Clouds: Clear
Visibility: 6 miles , 10 km
2017/11/25 08:50 EGUW 250850Z AUTO 29009KT 9999 NCD M00/M01 Q1013
 
EGGW - Luton Airport, United Kingdom
Distance from station: WNW 76km
Updated: 25/11/2017 08:50
Clear
Clear
 Wind from W
Wind: W 12 mph , 19 km/h
Temperature: 2°C
Wind Chill: -2°C
Dew Point: 0°C
Humidity: 87%
Barometer: 1014 hPa
Clouds: Clear
Visibility: 6 miles , 10 km
2017/11/25 08:50 EGGW 250850Z AUTO 27010KT 9999 NCD 02/M00 Q1014
EGSC - Cambridge, United Kingdom
Distance from station: NNW 81km
Updated: 25/11/2017 08:50
Clear
Clear
 Wind from WSW
Wind: WSW 6 mph , 9 km/h
Temperature: 1°C
Wind Chill: -2°C
Dew Point: 0°C
Humidity: 93%
Barometer: 1014 hPa
Summary: Clear
Visibility: greater than 7 miles , 10 km
2017/11/25 08:50 EGSC 250850Z 25005KT CAVOK 01/M00 Q1014